• Join FlightAware (Why Join?)
  • Login
  • US Flag 
09:18PM EDT


 

Airport Tracker/Info


-or-


 

Live Flight TrackerFlight Track Log ✈ EGF3773 ✈ 08-May-2013 ✈ KDEN - KORD

Flight Track Log - Related Links

Times and Time Zones

All times are in EDT time to prevent confusion due to time zone crossing. See the EGF3773 flight status page for this flight to view local times or setup timezone preferences in your user account.

Time Position Orientation Groundspeed Altitude Reporting Facility
EDT Latitude Longitude Course Direction KTS MPH feet Rate Location/Type
08:28PM 39.8833 -104.6167 66° East 189 217 6,200  Level Denver TRACON
08:29PM 39.8667 -104.5333 105° East 229 264 8,800 2,280 Climbing Denver TRACON
08:30PM 39.9016 -104.3799 80° East  Level FlightAware Approximate
08:30PM 39.8667 -104.4333 90° East 272 313 10,800  Level Denver TRACON
08:31PM 39.9240 -104.2351 73° East  Level FlightAware Approximate
08:31PM 39.8686 -104.3939 86° East 272 313 12,000  Level Denver Center
08:32PM 39.9567 -104.0935 73° East  Level FlightAware Approximate
08:32PM 39.8967 -104.2856 71° East 315 362 13,600  Level Denver Center
08:33PM 39.9777 -103.9503 66° East  Level FlightAware Approximate
08:33PM 39.9203 -104.1908 72° East 324 373 15,300  Level Denver Center
08:34PM 39.9556 -104.0442 73° East 348 400 17,600 1,920 Climbing Denver Center
08:35PM 39.9861 -103.9200 72° East 360 414 19,300 1,680 Climbing Denver Center
08:36PM 40.0186 -103.7800 73° East 375 432 21,100 1,560 Climbing Denver Center
08:37PM 40.0400 -103.6569 77° East 363 418 22,600 1,560 Climbing Denver Center
08:38PM 40.0656 -103.5017 78° East 391 450 24,400 1,500 Climbing Denver Center
08:39PM 40.0872 -103.3650 78° East 399 459 25,700 1,260 Climbing Denver Center
08:40PM 40.1133 -103.2025 78° East 410 472 27,100 1,200 Climbing Denver Center
08:41PM 40.1364 -103.0619 78° East 413 475 28,300 1,200 Climbing Denver Center
08:42PM 40.1625 -102.8933 78° East 422 486 29,600 1,020 Climbing Denver Center
08:43PM 40.1858 -102.7464 78° East 430 495 30,500 780 Climbing Denver Center
08:44PM 40.2044 -102.6233 79° East 433 498 31,300 1,020 Climbing Denver Center
08:45PM 40.2356 -102.4222 78° East 443 510 32,600 840 Climbing Denver Center
08:46PM 40.2592 -102.2700 78° East 446 513 33,300 1,200 Climbing Denver Center
08:47PM 40.2894 -102.0681 79° East 440 506 35,400 1,500 Climbing Denver Center
08:48PM 40.3139 -101.8972 79° East 430 495 36,400 720 Climbing Denver Center
08:49PM 40.3361 -101.7514 79° East 428 493 37,000 240 Climbing Denver Center
08:50PM 40.3619 -101.5739 79° East 443 510 37,000  Level Denver Center
08:51PM 40.3853 -101.4164 79° East 458 527 37,000  Level Denver Center
08:53PM 40.4111 -101.2283 80° East 470 541 37,000  Level Denver Center
08:54PM 40.4336 -101.0703 79° East 464 534 37,000  Level Denver Center
08:55PM 40.4617 -100.9139 77° East 463 533 37,000  Level Denver Center
08:56PM 40.5133 -100.7675 65° Northeast 464 534 37,000  Level Denver Center
08:57PM 40.5850 -100.5722 64° Northeast 469 540 37,000  Level Denver Center
08:58PM 40.6306 -100.4492 64° Northeast 473 544 37,000  Level Denver Center
08:59PM 40.7033 -100.2528 64° Northeast 473 544 37,000  Level Denver Center
09:00PM 40.7572 -100.1042 64° Northeast 472 543 37,000  Level Denver Center
09:01PM 40.8111 -99.9561 64° Northeast 471 542 37,000  Level Denver Center
09:02PM 40.8756 -99.7797 64° Northeast 471 542 37,000  Level Denver Center
09:03PM 40.9319 -99.6222 65° Northeast 473 544 37,000  Level Denver Center
09:04PM 40.9883 -99.4653 65° Northeast 472 543 37,000  Level Denver Center
09:05PM 41.0444 -99.3078 65° Northeast 472 543 37,000  Level Denver Center
09:06PM 41.1000 -99.1500 65° Northeast 472 543 37,000  Level Denver Center
09:06PM 41.1219 -99.0889 64° Northeast 472 543 37,000  Level Minneapolis Center
09:07PM 41.1589 -98.9811 65° Northeast 471 542 37,000  Level Denver Center
09:08PM 41.2208 -98.8053 65° Northeast 471 542 37,000  Level Denver Center
09:08PM 41.2325 -98.7733 64° Northeast 471 542 37,000  Level Minneapolis Center
09:09PM 41.2872 -98.6142 65° Northeast 471 542 37,000  Level Minneapolis Center
09:10PM 41.3464 -98.4422 65° Northeast 469 540 37,000  Level Minneapolis Center
09:11PM 41.4003 -98.2825 66° East 471 542 37,000  Level Minneapolis Center
09:12PM 41.4528 -98.1211 66° East 473 544 37,000  Level Minneapolis Center
09:13PM 41.5114 -97.9436 66° East 473 544 37,000  Level Minneapolis Center
09:14PM 41.5631 -97.7819 67° East 473 544 37,000  Level Minneapolis Center
09:15PM 41.6156 -97.6197 67° East 474 545 37,000  Level Minneapolis Center
09:17PM 41.6667 -97.4564 67° East 475 547 37,000  Level Minneapolis Center
09:18PM 41.7192 -97.2919 67° East 479 551 37,000  Level Minneapolis Center
09:19PM 41.7525 -97.0789 78° East 484 557 37,000  Level Minneapolis Center
09:20PM 41.7814 -96.8631 80° East 488 562 37,000  Level Minneapolis Center
09:21PM 41.8094 -96.6428 80° East 495 570 37,000  Level Minneapolis Center
09:22PM 41.8325 -96.4600 80° East 496 571 37,000  Level Minneapolis Center
09:23PM 41.8558 -96.2764 80° East 496 571 37,000  Level Minneapolis Center
09:24PM 41.8772 -96.0919 81° East 496 571 37,000  Level Minneapolis Center
09:25PM 41.9039 -95.8706 81° East 496 571 37,000  Level Minneapolis Center
09:27PM 41.9306 -95.6539 81° East 489 563 37,000  Level Minneapolis Center
09:28PM 41.9589 -95.4006 81° East 488 562 37,000  Level Minneapolis Center
09:29PM 41.9803 -95.2206 81° East 487 560 37,000  Level Minneapolis Center
09:30PM 41.9992 -95.0422 82° East 482 555 37,000  Level Minneapolis Center
09:31PM 42.0189 -94.8628 82° East 485 558 37,000  Level Minneapolis Center
09:32PM 42.0383 -94.6847 82° East 483 556 37,000  Level Minneapolis Center
09:33PM 42.0589 -94.5069 81° East 481 554 37,000  Level Minneapolis Center
09:34PM 42.0764 -94.3289 82° East 480 552 37,000  Level Minneapolis Center
09:35PM 42.0961 -94.1494 82° East 483 556 37,000  Level Minneapolis Center
09:36PM 42.1175 -93.9356 82° East 482 555 37,000  Level Minneapolis Center
09:37PM 42.1375 -93.7550 81° East 484 557 37,000  Level Minneapolis Center
09:38PM 42.1514 -93.6133 82° East 485 558 37,000  Level Minneapolis Center
09:39PM 42.1722 -93.4003 82° East 483 556 37,000  Level Minneapolis Center
09:40PM 42.1900 -93.2242 82° East 480 552 37,000  Level Minneapolis Center
09:41PM 42.2061 -93.0456 83° East 484 557 37,000  Level Minneapolis Center
09:42PM 42.2256 -92.8333 83° East 482 555 37,000  Level Minneapolis Center
09:43PM 42.2428 -92.6561 82° East 483 556 37,000  Level Minneapolis Center
09:44PM 42.2583 -92.4783 83° East 483 556 37,000 -480 Level Minneapolis Center
09:45PM 42.2744 -92.2989 83° East 486 559 36,100 -1,020 Descending Minneapolis Center
09:46PM 42.2906 -92.1147 83° East 495 570 35,000 -1,200 Descending Minneapolis Center
09:47PM 42.3092 -91.8925 83° East 503 579 33,700 -1,200 Descending Minneapolis Center
09:48PM 42.3233 -91.7156 84° East 492 566 32,600 -1,140 Descending Minneapolis Center
09:50PM 42.3411 -91.5094 83° East 471 542 31,300 -1,080 Descending Chicago Center
09:51PM 42.3539 -91.3344 84° East 476 548 30,300 -1,080 Descending Chicago Center
09:52PM 42.3686 -91.1547 84° East 487 560 29,200 -660 Descending Chicago Center
09:53PM 42.3811 -90.9825 84° East 471 542 29,000 -120 Descending Chicago Center
09:54PM 42.3975 -90.7769 84° East 465 535 29,000 -180 Level Chicago Center
09:55PM 42.4114 -90.6064 84° East 463 533 28,700 -720 Descending Chicago Center
09:56PM 42.4303 -90.4319 82° East 471 542 27,600 -1,020 Descending Chicago Center
09:57PM 42.4475 -90.2642 82° East 455 524 26,700 -1,140 Descending Chicago Center
09:58PM 42.4628 -90.0994 83° East 448 516 25,300 -1,620 Descending Chicago Center
09:59PM 42.4797 -89.9111 83° East 428 493 23,400 -1,740 Descending Chicago Center
10:00PM 42.4972 -89.7694 80° East 394 453 21,800 -1,680 Descending Chicago Center
10:01PM 42.5094 -89.6222 84° East 393 452 20,000 -1,740 Descending Chicago Center
10:02PM 42.5239 -89.4808 82° East 386 444 18,300 -1,620 Descending Chicago Center
10:03PM 42.5372 -89.3400 83° East 380 437 16,700 -1,620 Descending Chicago Center
10:04PM 42.5492 -89.1992 83° East 377 434 15,000 -1,380 Descending Chicago Center
10:05PM 42.5367 -89.0500 96° East 352 405 13,900 -1,200 Descending Chicago Center
10:06PM 42.5064 -88.9383 110° East 323 372 12,600 -1,140 Descending Chicago Center
10:07PM 42.4761 -88.8325 111° Southeast 307 353 11,600 -960 Descending Chicago Center
10:08PM 42.4439 -88.7250 112° Southeast 309 356 10,700 -900 Descending Chicago Center
10:09PM 42.4128 -88.6228 112° Southeast 298 343 9,800 -840 Descending Chicago Center
10:10PM 42.3814 -88.5203 112° Southeast 295 339 9,000 -420 Descending Chicago Center
10:11PM 42.3436 -88.4286 119° Southeast 286 329 9,000 -540 Level Chicago Center
10:12PM 42.2925 -88.3453 130° Southeast 291 335 8,000 -1,380 Descending Chicago Center
10:13PM 42.2342 -88.2486 129° Southeast 282 325 6,200 -1,620 Descending Chicago Center
10:14PM 42.1861 -88.1694 129° Southeast 276 318 4,700 -1,260 Descending Chicago Center
10:15PM 42.1389 -88.0969 131° Southeast 266 306 3,700 -1,020 Descending Chicago Center